Tropical Cyclones
[Index]
Main Index Home Page Stock Weather Photos Extreme Storms Discussion Storm News and Storm Chasing Reports Tropical Cyclones / Hurricanes / Typhoons Weather Data and Links Wild Fires / Bushfires Weather Observation Techniques Weather Picture Catalogue Tornado Pictures and Reports Stock Video Footage and DVDs for sale
Season 1963-1964 Tropical Cyclone HAZEL Track Map
Season 1963-1964 Summaries: [BoM-AU] [JTWC-AU] [JTWC-SIO] [JTWC-SPAC] [JTWC-SH]
<<- Previous TC | JTWC 1963-1964 Season | Next TC ->>

click for intensity scale information  Lat/long Grid: Show Hide

 Date Labels: Show Hide

Joint Typhoon Warning Centre Cyclone Data

Name: HAZEL
Number: 525 / 6423

06 Mar 1964 18:00 UTC to 16 Mar 1964 12:00 UTC

    date/time    lat    long     hPa   cat  kts
1964-03-06 18   14.0   106.0                  15          
1964-03-07 00   14.0   105.9                  15          
1964-03-07 06   13.8   105.3                  15          
1964-03-07 12   13.6   104.5                  20          
1964-03-07 18   13.3   103.8                  20          
1964-03-08 00   13.1   103.1                  25          
1964-03-08 06   13.0   102.2                  25          
1964-03-08 12   13.0   100.9                  30          
1964-03-08 18   13.0    99.7                  30          
1964-03-09 00   13.0    98.3                  30          
1964-03-09 06   13.0    97.3                  30          
1964-03-09 12   13.0    96.5                  35          
1964-03-09 18   13.0    95.7            2     60          
1964-03-10 00   13.0    95.1            1     45          
1964-03-10 06   13.3    94.7                  25          
1964-03-10 12   13.8    94.5                  25          
1964-03-10 18   14.4    94.3                  35          
1964-03-11 00   14.9    94.0            2     65          
1964-03-11 06   15.5    93.8            1     40          
1964-03-11 12   16.3    93.6                  30          
1964-03-11 18   17.0    93.3                  30          
1964-03-12 00   17.7    93.1                  25          
1964-03-12 06   18.2    93.0                  25          
1964-03-12 12   18.5    93.0                  30          
1964-03-12 18   18.8    93.0                  35          
1964-03-13 00   19.0    93.0                  20          
1964-03-13 06   19.2    92.8                  15          
1964-03-13 12   19.5    92.6                  20          
1964-03-13 18   19.8    92.3                  25          
1964-03-14 00   20.0    92.1                  20          
1964-03-14 06   20.3    91.8                  20          
1964-03-14 12   20.9    91.6                  30          
1964-03-14 18   21.5    91.3                  35          
1964-03-15 00   22.0    91.1                  25          
1964-03-15 06   22.8    91.0                  25          
1964-03-15 12   23.8    91.0                  25          
1964-03-15 18   24.8    91.0                  25          
1964-03-16 00   25.8    91.2                  25          
1964-03-16 06   26.8    91.7                  25          
1964-03-16 12   27.8    92.6                  25          
Winds are 1-min average.

Tropical cyclone tracks developed by Michael Bath using data from the Joint Typhoon Warning Centre Best Tracks and Google Maps.


[Australian Severe Weather index] [Copyright Notice] [Email Contacts] [Search This Site] [Privacy Policy]
Document: tropical_cyclone_hazel.htm Updated: 18 September 2016